Liverpool, United Kingdom

5:00 PM BST on September 25, 2016 (GMT +0100)
Liverpool | | Change Station

Elev 85 ft 53.33 °N, 2.85 °W | Updated 10 minutes ago

Scattered Clouds
Scattered Clouds
61 °F
Feels Like 61 °F
N
18
Wind Variable Wind from SW

Today
High -- | Low -- °F
--% Chance of Precip.
Yesterday
High -- | Low -- °F
Precip. -- in
Pressure 29.92 in
Visibility 6.2 miles
Clouds Scattered Clouds 2000 ft
Dew Point 45 °F
Humidity 55%
Rainfall 0.00 in
Snow Depth Not available.
7:03 AM 7:01 PM
Waning Crescent, 27% visible
METAR EGGP 251550Z 23016KT 9999 SCT020 16/07 Q1013
Pressure 29.92 in
Visibility 6.2 miles
Clouds Scattered Clouds 2000 ft
Dew Point 45 °F
Humidity 55%
Rainfall 0.00 in
Snow Depth Not available.
7:03 AM 7:01 PM
Waning Crescent, 27% visible
METAR EGGP 251550Z 23016KT 9999 SCT020 16/07 Q1013

10-Day Weather Forecast

×

Almanac

Astronomy

Sep. 25, 2016 Rise Set
Actual Time
Civil Twilight
Nautical Twilight
Astronomical Twilight
Moon
Length of Visible Light
Length of Day
Tomorrow will be .
, % of the Moon is Illuminated

Today's Extremes

Country Highs Country Lows

Community

WunderPhotos

Upload Photos

1,941,644 photos uploaded!

WunderBlog® & News

Nearby

Air Quality

  Air Quality AQ Index Pollutant
Not available.

Snow Depth

Station Depth Elevation

Earthquake Activity

City Distance Mag. Time & Date
Minimum magnitude displayed is 2.5.

Coastal Water Temperatures

Place Temperature

Stations

Nearby Weather Stations

Station Location Temp. Windchill Dew Point Humidity Wind Precip. Elev Updated Type